sensor_id;sensor_type;location;lat;lon;timestamp;pressure;altitude;pressure_sealevel;temperature
69435;BMP180;56625;54.322;18.582;2023-03-01T00:01:29;102099.80;;;1.50
69435;BMP180;56625;54.322;18.582;2023-03-01T00:03:58;102102.20;;;1.52
69435;BMP180;56625;54.322;18.582;2023-03-01T00:06:26;102111.60;;;1.60
69435;BMP180;56625;54.322;18.582;2023-03-01T00:08:53;102113.20;;;1.60
69435;BMP180;56625;54.322;18.582;2023-03-01T00:11:26;102107.00;;;1.60
69435;BMP180;56625;54.322;18.582;2023-03-01T00:13:56;102099.40;;;1.60
69435;BMP180;56625;54.322;18.582;2023-03-01T00:16:38;102088.80;;;1.60
69435;BMP180;56625;54.322;18.582;2023-03-01T00:19:11;102088.60;;;1.60
69435;BMP180;56625;54.322;18.582;2023-03-01T00:21:39;102078.20;;;1.60
69435;BMP180;56625;54.322;18.582;2023-03-01T00:24:07;102082.00;;;1.60
69435;BMP180;56625;54.322;18.582;2023-03-01T00:26:33;102085.00;;;1.60
69435;BMP180;56625;54.322;18.582;2023-03-01T00:29:00;102074.80;;;1.60
69435;BMP180;56625;54.322;18.582;2023-03-01T00:31:30;102076.00;;;1.60
69435;BMP180;56625;54.322;18.582;2023-03-01T00:34:01;102077.20;;;1.66
69435;BMP180;56625;54.322;18.582;2023-03-01T00:36:35;102079.80;;;1.66
69435;BMP180;56625;54.322;18.582;2023-03-01T00:39:09;102077.20;;;1.70
69435;BMP180;56625;54.322;18.582;2023-03-01T00:41:36;102070.40;;;1.70
69435;BMP180;56625;54.322;18.582;2023-03-01T00:44:03;102072.00;;;1.70
69435;BMP180;56625;54.322;18.582;2023-03-01T00:46:30;102069.40;;;1.70
69435;BMP180;56625;54.322;18.582;2023-03-01T00:48:57;102068.00;;;1.70
69435;BMP180;56625;54.322;18.582;2023-03-01T00:51:27;102064.40;;;1.70
69435;BMP180;56625;54.322;18.582;2023-03-01T00:53:57;102063.60;;;1.70
69435;BMP180;56625;54.322;18.582;2023-03-01T00:56:24;102056.80;;;1.70
69435;BMP180;56625;54.322;18.582;2023-03-01T00:58:51;102056.40;;;1.70
69435;BMP180;56625;54.322;18.582;2023-03-01T01:01:22;102059.20;;;1.64
69435;BMP180;56625;54.322;18.582;2023-03-01T01:03:56;102064.60;;;1.62
69435;BMP180;56625;54.322;18.582;2023-03-01T01:06:34;102069.20;;;1.68
69435;BMP180;56625;54.322;18.582;2023-03-01T01:09:05;102071.80;;;1.64
69435;BMP180;56625;54.322;18.582;2023-03-01T01:11:33;102070.20;;;1.68
69435;BMP180;56625;54.322;18.582;2023-03-01T01:14:01;102071.40;;;1.70
69435;BMP180;56625;54.322;18.582;2023-03-01T01:16:28;102078.40;;;1.70
69435;BMP180;56625;54.322;18.582;2023-03-01T01:18:56;102074.20;;;1.70
69435;BMP180;56625;54.322;18.582;2023-03-01T01:21:24;102066.20;;;1.70
69435;BMP180;56625;54.322;18.582;2023-03-01T01:23:51;102065.00;;;1.70
69435;BMP180;56625;54.322;18.582;2023-03-01T01:26:25;102063.20;;;1.70
69435;BMP180;56625;54.322;18.582;2023-03-01T01:28:53;102057.40;;;1.70
69435;BMP180;56625;54.322;18.582;2023-03-01T01:31:22;102057.60;;;1.70
69435;BMP180;56625;54.322;18.582;2023-03-01T01:33:52;102060.00;;;1.70
69435;BMP180;56625;54.322;18.582;2023-03-01T01:36:19;102066.00;;;1.70
69435;BMP180;56625;54.322;18.582;2023-03-01T01:38:46;102059.60;;;1.70
69435;BMP180;56625;54.322;18.582;2023-03-01T01:41:14;102059.00;;;1.70
69435;BMP180;56625;54.322;18.582;2023-03-01T01:44:08;102047.00;;;1.68
69435;BMP180;56625;54.322;18.582;2023-03-01T01:46:40;102045.80;;;1.66
69435;BMP180;56625;54.322;18.582;2023-03-01T01:49:19;102038.60;;;1.70
69435;BMP180;56625;54.322;18.582;2023-03-01T01:51:51;102032.40;;;1.60
69435;BMP180;56625;54.322;18.582;2023-03-01T01:54:32;102030.00;;;1.60
69435;BMP180;56625;54.322;18.582;2023-03-01T01:57:07;102030.00;;;1.60
69435;BMP180;56625;54.322;18.582;2023-03-01T01:59:36;102027.80;;;1.60
69435;BMP180;56625;54.322;18.582;2023-03-01T02:02:05;102020.80;;;1.60
69435;BMP180;56625;54.322;18.582;2023-03-01T02:04:32;102018.60;;;1.60
69435;BMP180;56625;54.322;18.582;2023-03-01T02:07:17;102021.60;;;1.60
69435;BMP180;56625;54.322;18.582;2023-03-01T02:09:48;102025.60;;;1.60
69435;BMP180;56625;54.322;18.582;2023-03-01T02:12:18;102018.60;;;1.52
69435;BMP180;56625;54.322;18.582;2023-03-01T02:14:45;102020.40;;;1.50
69435;BMP180;56625;54.322;18.582;2023-03-01T02:17:15;102021.00;;;1.50
69435;BMP180;56625;54.322;18.582;2023-03-01T02:20:07;102015.40;;;1.50
69435;BMP180;56625;54.322;18.582;2023-03-01T02:22:39;102018.00;;;1.50
69435;BMP180;56625;54.322;18.582;2023-03-01T02:30:36;102016.40;;;1.40
69435;BMP180;56625;54.322;18.582;2023-03-01T02:33:04;102024.00;;;1.40
69435;BMP180;56625;54.322;18.582;2023-03-01T02:35:38;102012.00;;;1.34
69435;BMP180;56625;54.322;18.582;2023-03-01T02:38:08;102016.80;;;1.30
69435;BMP180;56625;54.322;18.582;2023-03-01T02:40:37;102014.80;;;1.30
69435;BMP180;56625;54.322;18.582;2023-03-01T02:43:08;102008.40;;;1.30
69435;BMP180;56625;54.322;18.582;2023-03-01T02:45:35;102003.20;;;1.30
69435;BMP180;56625;54.322;18.582;2023-03-01T02:48:01;102004.20;;;1.30
69435;BMP180;56625;54.322;18.582;2023-03-01T02:55:40;102009.20;;;1.20
69435;BMP180;56625;54.322;18.582;2023-03-01T02:58:07;102001.80;;;1.20
69435;BMP180;56625;54.322;18.582;2023-03-01T03:00:41;102000.60;;;1.20
69435;BMP180;56625;54.322;18.582;2023-03-01T03:03:15;102002.00;;;1.20
69435;BMP180;56625;54.322;18.582;2023-03-01T03:05:43;101998.20;;;1.20
69435;BMP180;56625;54.322;18.582;2023-03-01T03:08:09;101987.40;;;1.20
69435;BMP180;56625;54.322;18.582;2023-03-01T03:10:40;101987.80;;;1.20
69435;BMP180;56625;54.322;18.582;2023-03-01T03:13:12;101988.80;;;1.20
69435;BMP180;56625;54.322;18.582;2023-03-01T03:15:42;101984.20;;;1.20
69435;BMP180;56625;54.322;18.582;2023-03-01T03:18:16;101981.80;;;1.20
69435;BMP180;56625;54.322;18.582;2023-03-01T03:20:44;101976.80;;;1.20
69435;BMP180;56625;54.322;18.582;2023-03-01T03:23:12;101979.20;;;1.20
69435;BMP180;56625;54.322;18.582;2023-03-01T03:25:39;101978.60;;;1.20
69435;BMP180;56625;54.322;18.582;2023-03-01T03:28:07;101977.40;;;1.20
69435;BMP180;56625;54.322;18.582;2023-03-01T03:30:40;101977.20;;;1.20
69435;BMP180;56625;54.322;18.582;2023-03-01T03:33:09;101976.60;;;1.20
69435;BMP180;56625;54.322;18.582;2023-03-01T03:35:46;101970.00;;;1.20
69435;BMP180;56625;54.322;18.582;2023-03-01T03:38:16;101965.60;;;1.20
69435;BMP180;56625;54.322;18.582;2023-03-01T03:40:50;101958.40;;;1.20
69435;BMP180;56625;54.322;18.582;2023-03-01T03:43:22;101961.00;;;1.20
69435;BMP180;56625;54.322;18.582;2023-03-01T03:45:51;101956.20;;;1.20
69435;BMP180;56625;54.322;18.582;2023-03-01T03:48:18;101955.20;;;1.18
69435;BMP180;56625;54.322;18.582;2023-03-01T03:50:55;101956.40;;;1.18
69435;BMP180;56625;54.322;18.582;2023-03-01T03:53:24;101956.00;;;1.14
69435;BMP180;56625;54.322;18.582;2023-03-01T03:55:52;101953.40;;;1.10
69435;BMP180;56625;54.322;18.582;2023-03-01T03:58:22;101949.60;;;1.10
69435;BMP180;56625;54.322;18.582;2023-03-01T04:00:55;101959.40;;;1.10
69435;BMP180;56625;54.322;18.582;2023-03-01T04:03:25;101953.40;;;1.10
69435;BMP180;56625;54.322;18.582;2023-03-01T04:05:52;101948.40;;;1.10
69435;BMP180;56625;54.322;18.582;2023-03-01T04:08:22;101950.60;;;1.10
69435;BMP180;56625;54.322;18.582;2023-03-01T04:10:52;101943.40;;;1.10
69435;BMP180;56625;54.322;18.582;2023-03-01T04:13:23;101942.80;;;1.10
69435;BMP180;56625;54.322;18.582;2023-03-01T04:15:54;101940.60;;;1.10
69435;BMP180;56625;54.322;18.582;2023-03-01T04:18:23;101938.40;;;1.10
69435;BMP180;56625;54.322;18.582;2023-03-01T04:20:53;101937.40;;;1.10
69435;BMP180;56625;54.322;18.582;2023-03-01T04:23:21;101934.80;;;1.10
69435;BMP180;56625;54.322;18.582;2023-03-01T04:25:57;101934.60;;;1.10
69435;BMP180;56625;54.322;18.582;2023-03-01T04:28:32;101940.40;;;1.10
69435;BMP180;56625;54.322;18.582;2023-03-01T04:31:14;101934.40;;;1.10
69435;BMP180;56625;54.322;18.582;2023-03-01T04:33:45;101933.60;;;1.08
69435;BMP180;56625;54.322;18.582;2023-03-01T04:36:15;101938.00;;;1.10
69435;BMP180;56625;54.322;18.582;2023-03-01T04:38:43;101938.00;;;1.10
69435;BMP180;56625;54.322;18.582;2023-03-01T04:41:17;101934.60;;;1.10
69435;BMP180;56625;54.322;18.582;2023-03-01T04:43:45;101936.20;;;1.10
69435;BMP180;56625;54.322;18.582;2023-03-01T04:46:16;101932.60;;;1.04
69435;BMP180;56625;54.322;18.582;2023-03-01T04:48:44;101939.40;;;1.04
69435;BMP180;56625;54.322;18.582;2023-03-01T04:51:11;101935.60;;;1.06
69435;BMP180;56625;54.322;18.582;2023-03-01T04:53:43;101936.80;;;1.02
69435;BMP180;56625;54.322;18.582;2023-03-01T04:56:11;101937.80;;;1.00
69435;BMP180;56625;54.322;18.582;2023-03-01T04:58:37;101934.00;;;1.00
69435;BMP180;56625;54.322;18.582;2023-03-01T05:01:16;101937.60;;;1.00
69435;BMP180;56625;54.322;18.582;2023-03-01T05:03:48;101940.80;;;1.00
69435;BMP180;56625;54.322;18.582;2023-03-01T05:06:16;101935.20;;;1.00
69435;BMP180;56625;54.322;18.582;2023-03-01T05:08:43;101927.60;;;1.00
69435;BMP180;56625;54.322;18.582;2023-03-01T05:11:11;101920.40;;;1.00
69435;BMP180;56625;54.322;18.582;2023-03-01T05:13:39;101925.60;;;1.00
69435;BMP180;56625;54.322;18.582;2023-03-01T05:16:08;101921.80;;;0.98
69435;BMP180;56625;54.322;18.582;2023-03-01T05:18:37;101930.00;;;0.94
69435;BMP180;56625;54.322;18.582;2023-03-01T05:21:09;101929.60;;;0.90
69435;BMP180;56625;54.322;18.582;2023-03-01T05:23:36;101928.00;;;0.90
69435;BMP180;56625;54.322;18.582;2023-03-01T05:26:05;101927.00;;;0.90
69435;BMP180;56625;54.322;18.582;2023-03-01T05:28:35;101927.20;;;0.90
69435;BMP180;56625;54.322;18.582;2023-03-01T05:31:02;101927.00;;;0.90
69435;BMP180;56625;54.322;18.582;2023-03-01T05:33:28;101927.40;;;0.90
69435;BMP180;56625;54.322;18.582;2023-03-01T05:36:00;101921.00;;;0.90
69435;BMP180;56625;54.322;18.582;2023-03-01T05:38:27;101922.60;;;0.90
69435;BMP180;56625;54.322;18.582;2023-03-01T05:40:53;101923.00;;;0.90
69435;BMP180;56625;54.322;18.582;2023-03-01T05:43:20;101927.60;;;0.90
69435;BMP180;56625;54.322;18.582;2023-03-01T05:45:47;101921.60;;;0.90
69435;BMP180;56625;54.322;18.582;2023-03-01T05:48:14;101925.20;;;0.90
69435;BMP180;56625;54.322;18.582;2023-03-01T05:50:44;101923.80;;;0.90
69435;BMP180;56625;54.322;18.582;2023-03-01T05:53:16;101922.20;;;0.90
69435;BMP180;56625;54.322;18.582;2023-03-01T05:55:44;101925.60;;;0.90
69435;BMP180;56625;54.322;18.582;2023-03-01T05:58:17;101918.60;;;0.90
69435;BMP180;56625;54.322;18.582;2023-03-01T06:00:47;101922.60;;;0.90
69435;BMP180;56625;54.322;18.582;2023-03-01T06:03:16;101918.00;;;0.90
69435;BMP180;56625;54.322;18.582;2023-03-01T06:05:43;101916.00;;;0.90
69435;BMP180;56625;54.322;18.582;2023-03-01T06:08:11;101921.80;;;0.90
69435;BMP180;56625;54.322;18.582;2023-03-01T06:10:39;101925.00;;;0.98
69435;BMP180;56625;54.322;18.582;2023-03-01T06:13:05;101932.80;;;1.00
69435;BMP180;56625;54.322;18.582;2023-03-01T06:15:32;101934.00;;;1.00
69435;BMP180;56625;54.322;18.582;2023-03-01T06:17:58;101931.00;;;1.00
69435;BMP180;56625;54.322;18.582;2023-03-01T06:20:28;101938.40;;;1.10
69435;BMP180;56625;54.322;18.582;2023-03-01T06:22:56;101935.60;;;1.10
69435;BMP180;56625;54.322;18.582;2023-03-01T06:25:26;101936.20;;;1.10
69435;BMP180;56625;54.322;18.582;2023-03-01T06:27:53;101940.60;;;1.10
69435;BMP180;56625;54.322;18.582;2023-03-01T06:30:22;101939.20;;;1.12
69435;BMP180;56625;54.322;18.582;2023-03-01T06:32:49;101942.40;;;1.14
69435;BMP180;56625;54.322;18.582;2023-03-01T06:35:18;101941.00;;;1.20
69435;BMP180;56625;54.322;18.582;2023-03-01T06:37:47;101938.20;;;1.20
69435;BMP180;56625;54.322;18.582;2023-03-01T06:40:15;101938.40;;;1.22
69435;BMP180;56625;54.322;18.582;2023-03-01T06:42:48;101940.00;;;1.30
69435;BMP180;56625;54.322;18.582;2023-03-01T06:45:17;101940.60;;;1.34
69435;BMP180;56625;54.322;18.582;2023-03-01T06:47:45;101947.20;;;1.40
69435;BMP180;56625;54.322;18.582;2023-03-01T06:50:14;101940.60;;;1.40
69435;BMP180;56625;54.322;18.582;2023-03-01T06:52:41;101950.60;;;1.48
69435;BMP180;56625;54.322;18.582;2023-03-01T06:55:08;101949.60;;;1.50
69435;BMP180;56625;54.322;18.582;2023-03-01T06:57:34;101950.00;;;1.52
69435;BMP180;56625;54.322;18.582;2023-03-01T07:00:03;101950.20;;;1.60
69435;BMP180;56625;54.322;18.582;2023-03-01T07:02:29;101948.80;;;1.60
69435;BMP180;56625;54.322;18.582;2023-03-01T07:04:56;101950.00;;;1.60
69435;BMP180;56625;54.322;18.582;2023-03-01T07:07:22;101954.00;;;1.60
69435;BMP180;56625;54.322;18.582;2023-03-01T07:09:50;101951.20;;;1.60
69435;BMP180;56625;54.322;18.582;2023-03-01T07:12:16;101947.40;;;1.60
69435;BMP180;56625;54.322;18.582;2023-03-01T07:14:44;101942.20;;;1.60
69435;BMP180;56625;54.322;18.582;2023-03-01T07:17:10;101940.40;;;1.70
69435;BMP180;56625;54.322;18.582;2023-03-01T07:19:37;101944.20;;;1.74
69435;BMP180;56625;54.322;18.582;2023-03-01T07:22:03;101944.60;;;1.80
69435;BMP180;56625;54.322;18.582;2023-03-01T07:24:30;101942.60;;;1.88
69435;BMP180;56625;54.322;18.582;2023-03-01T07:26:57;101953.80;;;1.90
69435;BMP180;56625;54.322;18.582;2023-03-01T07:29:23;101949.00;;;2.00
69435;BMP180;56625;54.322;18.582;2023-03-01T07:31:50;101948.80;;;2.10
69435;BMP180;56625;54.322;18.582;2023-03-01T07:34:16;101953.40;;;2.20
69435;BMP180;56625;54.322;18.582;2023-03-01T07:36:43;101951.00;;;2.20
69435;BMP180;56625;54.322;18.582;2023-03-01T07:39:11;101951.80;;;2.30
69435;BMP180;56625;54.322;18.582;2023-03-01T07:41:38;101950.00;;;2.34
69435;BMP180;56625;54.322;18.582;2023-03-01T07:44:05;101951.80;;;2.40
69435;BMP180;56625;54.322;18.582;2023-03-01T07:46:31;101950.00;;;2.50
69435;BMP180;56625;54.322;18.582;2023-03-01T07:48:58;101956.20;;;2.60
69435;BMP180;56625;54.322;18.582;2023-03-01T07:51:25;101959.60;;;2.70
69435;BMP180;56625;54.322;18.582;2023-03-01T07:53:51;101960.60;;;2.80
69435;BMP180;56625;54.322;18.582;2023-03-01T07:56:18;101958.00;;;2.90
69435;BMP180;56625;54.322;18.582;2023-03-01T07:58:45;101957.40;;;2.90
69435;BMP180;56625;54.322;18.582;2023-03-01T08:01:17;101947.00;;;2.90
69435;BMP180;56625;54.322;18.582;2023-03-01T08:03:44;101948.00;;;2.90
69435;BMP180;56625;54.322;18.582;2023-03-01T08:06:15;101940.80;;;3.00
69435;BMP180;56625;54.322;18.582;2023-03-01T08:08:42;101942.00;;;3.04
69435;BMP180;56625;54.322;18.582;2023-03-01T08:11:12;101936.20;;;3.14
69435;BMP180;56625;54.322;18.582;2023-03-01T08:13:39;101928.80;;;3.20
69435;BMP180;56625;54.322;18.582;2023-03-01T08:16:11;101927.20;;;3.20
69435;BMP180;56625;54.322;18.582;2023-03-01T08:18:38;101919.60;;;3.30
69435;BMP180;56625;54.322;18.582;2023-03-01T08:21:08;101921.00;;;3.40
69435;BMP180;56625;54.322;18.582;2023-03-01T08:23:35;101924.00;;;3.40
69435;BMP180;56625;54.322;18.582;2023-03-01T08:26:09;101927.20;;;3.60
69435;BMP180;56625;54.322;18.582;2023-03-01T08:28:36;101930.40;;;3.70
69435;BMP180;56625;54.322;18.582;2023-03-01T08:31:21;101928.60;;;3.80
69435;BMP180;56625;54.322;18.582;2023-03-01T08:33:51;101929.80;;;3.92
69435;BMP180;56625;54.322;18.582;2023-03-01T08:36:31;101931.80;;;4.00
69435;BMP180;56625;54.322;18.582;2023-03-01T08:39:00;101930.20;;;3.92
69435;BMP180;56625;54.322;18.582;2023-03-01T08:41:27;101931.40;;;3.98
69435;BMP180;56625;54.322;18.582;2023-03-01T08:43:55;101939.40;;;4.10
69435;BMP180;56625;54.322;18.582;2023-03-01T08:46:30;101935.20;;;4.18
69435;BMP180;56625;54.322;18.582;2023-03-01T08:48:58;101931.40;;;4.20
69435;BMP180;56625;54.322;18.582;2023-03-01T08:51:27;101922.00;;;4.30
69435;BMP180;56625;54.322;18.582;2023-03-01T08:53:55;101920.80;;;4.50
69435;BMP180;56625;54.322;18.582;2023-03-01T08:56:21;101914.40;;;4.60
69435;BMP180;56625;54.322;18.582;2023-03-01T08:58:49;101913.60;;;4.52
69435;BMP180;56625;54.322;18.582;2023-03-01T09:01:18;101910.80;;;4.60
69435;BMP180;56625;54.322;18.582;2023-03-01T09:03:46;101913.20;;;4.70
69435;BMP180;56625;54.322;18.582;2023-03-01T09:06:14;101917.60;;;4.80
69435;BMP180;56625;54.322;18.582;2023-03-01T09:08:44;101914.00;;;4.90
69435;BMP180;56625;54.322;18.582;2023-03-01T09:11:14;101907.20;;;4.92
69435;BMP180;56625;54.322;18.582;2023-03-01T09:13:43;101911.00;;;4.98
69435;BMP180;56625;54.322;18.582;2023-03-01T09:16:13;101909.60;;;5.00
69435;BMP180;56625;54.322;18.582;2023-03-01T09:18:40;101923.60;;;5.06
69435;BMP180;56625;54.322;18.582;2023-03-01T09:21:16;101924.00;;;5.10
69435;BMP180;56625;54.322;18.582;2023-03-01T09:23:47;101919.60;;;5.20
69435;BMP180;56625;54.322;18.582;2023-03-01T09:26:22;101918.60;;;5.30
69435;BMP180;56625;54.322;18.582;2023-03-01T09:28:52;101914.80;;;5.40
69435;BMP180;56625;54.322;18.582;2023-03-01T09:31:22;101916.00;;;5.50
69435;BMP180;56625;54.322;18.582;2023-03-01T09:33:53;101913.80;;;5.74
69435;BMP180;56625;54.322;18.582;2023-03-01T09:36:23;101921.60;;;6.00
69435;BMP180;56625;54.322;18.582;2023-03-01T09:38:51;101915.80;;;6.20
69435;BMP180;56625;54.322;18.582;2023-03-01T09:41:56;101917.20;;;6.40
69435;BMP180;56625;54.322;18.582;2023-03-01T09:44:54;101918.20;;;6.54
69435;BMP180;56625;54.322;18.582;2023-03-01T09:47:29;101907.40;;;6.60
69435;BMP180;56625;54.322;18.582;2023-03-01T09:50:12;101903.60;;;6.70
69435;BMP180;56625;54.322;18.582;2023-03-01T09:52:44;101905.40;;;6.76
69435;BMP180;56625;54.322;18.582;2023-03-01T09:55:30;101902.20;;;7.08
69435;BMP180;56625;54.322;18.582;2023-03-01T10:00:49;101900.80;;;7.34
69435;BMP180;56625;54.322;18.582;2023-03-01T10:03:28;101900.00;;;7.30
69435;BMP180;56625;54.322;18.582;2023-03-01T10:06:19;101914.00;;;7.20
69435;BMP180;56625;54.322;18.582;2023-03-01T10:09:13;101913.20;;;7.50
69435;BMP180;56625;54.322;18.582;2023-03-01T10:11:48;101913.80;;;7.60
69435;BMP180;56625;54.322;18.582;2023-03-01T10:17:19;101915.80;;;7.60
69435;BMP180;56625;54.322;18.582;2023-03-01T10:19:50;101911.20;;;7.50
69435;BMP180;56625;54.322;18.582;2023-03-01T10:22:27;101910.60;;;7.40
69435;BMP180;56625;54.322;18.582;2023-03-01T10:24:59;101916.80;;;7.34
69435;BMP180;56625;54.322;18.582;2023-03-01T10:28:05;101921.40;;;7.40
69435;BMP180;56625;54.322;18.582;2023-03-01T10:30:39;101921.80;;;7.60
69435;BMP180;56625;54.322;18.582;2023-03-01T10:33:17;101912.80;;;7.70
69435;BMP180;56625;54.322;18.582;2023-03-01T10:35:46;101917.20;;;7.74
69435;BMP180;56625;54.322;18.582;2023-03-01T10:38:16;101906.00;;;7.48
69435;BMP180;56625;54.322;18.582;2023-03-01T10:41:04;101907.40;;;7.30
69435;BMP180;56625;54.322;18.582;2023-03-01T10:43:56;101913.40;;;7.40
69435;BMP180;56625;54.322;18.582;2023-03-01T10:46:35;101915.80;;;7.50
69435;BMP180;56625;54.322;18.582;2023-03-01T10:49:18;101915.00;;;7.40
69435;BMP180;56625;54.322;18.582;2023-03-01T10:51:52;101911.40;;;7.40
69435;BMP180;56625;54.322;18.582;2023-03-01T10:54:27;101910.80;;;7.50
69435;BMP180;56625;54.322;18.582;2023-03-01T10:57:01;101910.20;;;7.54
69435;BMP180;56625;54.322;18.582;2023-03-01T10:59:31;101904.20;;;7.50
69435;BMP180;56625;54.322;18.582;2023-03-01T11:02:20;101903.00;;;7.30
69435;BMP180;56625;54.322;18.582;2023-03-01T11:05:19;101911.80;;;7.26
69435;BMP180;56625;54.322;18.582;2023-03-01T11:07:57;101916.20;;;7.22
69435;BMP180;56625;54.322;18.582;2023-03-01T11:10:32;101918.80;;;7.20
69435;BMP180;56625;54.322;18.582;2023-03-01T11:13:17;101912.00;;;7.20
69435;BMP180;56625;54.322;18.582;2023-03-01T11:16:06;101908.80;;;7.20
69435;BMP180;56625;54.322;18.582;2023-03-01T11:18:36;101913.20;;;7.18
69435;BMP180;56625;54.322;18.582;2023-03-01T11:21:15;101911.40;;;7.14
69435;BMP180;56625;54.322;18.582;2023-03-01T11:23:45;101912.60;;;7.20
69435;BMP180;56625;54.322;18.582;2023-03-01T11:26:15;101905.80;;;7.30
69435;BMP180;56625;54.322;18.582;2023-03-01T11:28:49;101902.20;;;7.20
69435;BMP180;56625;54.322;18.582;2023-03-01T11:31:18;101903.80;;;7.24
69435;BMP180;56625;54.322;18.582;2023-03-01T11:34:13;101903.80;;;7.40
69435;BMP180;56625;54.322;18.582;2023-03-01T11:36:52;101899.80;;;7.40
69435;BMP180;56625;54.322;18.582;2023-03-01T11:39:36;101892.80;;;7.30
69435;BMP180;56625;54.322;18.582;2023-03-01T11:42:15;101889.20;;;7.30
69435;BMP180;56625;54.322;18.582;2023-03-01T11:44:50;101887.20;;;7.20
69435;BMP180;56625;54.322;18.582;2023-03-01T11:48:07;101884.20;;;7.10
69435;BMP180;56625;54.322;18.582;2023-03-01T11:50:47;101891.80;;;7.10
69435;BMP180;56625;54.322;18.582;2023-03-01T11:53:41;101886.40;;;6.96
69435;BMP180;56625;54.322;18.582;2023-03-01T11:56:27;101886.80;;;7.00
69435;BMP180;56625;54.322;18.582;2023-03-01T12:04:58;101891.00;;;7.10
69435;BMP180;56625;54.322;18.582;2023-03-01T12:10:35;101885.20;;;7.20
69435;BMP180;56625;54.322;18.582;2023-03-01T12:15:49;101885.20;;;7.40
69435;BMP180;56625;54.322;18.582;2023-03-01T12:36:36;101881.40;;;7.28
69435;BMP180;56625;54.322;18.582;2023-03-01T12:39:39;101882.20;;;7.30
69435;BMP180;56625;54.322;18.582;2023-03-01T12:48:37;101881.60;;;7.22
69435;BMP180;56625;54.322;18.582;2023-03-01T12:51:13;101875.00;;;7.00
69435;BMP180;56625;54.322;18.582;2023-03-01T12:53:48;101867.00;;;6.90
69435;BMP180;56625;54.322;18.582;2023-03-01T12:56:23;101873.80;;;6.90
69435;BMP180;56625;54.322;18.582;2023-03-01T12:59:24;101872.00;;;6.90
69435;BMP180;56625;54.322;18.582;2023-03-01T13:02:10;101880.00;;;6.90
69435;BMP180;56625;54.322;18.582;2023-03-01T13:05:14;101880.60;;;6.80
69435;BMP180;56625;54.322;18.582;2023-03-01T13:07:58;101873.40;;;6.90
69435;BMP180;56625;54.322;18.582;2023-03-01T13:10:46;101875.20;;;6.90
69435;BMP180;56625;54.322;18.582;2023-03-01T13:13:23;101877.20;;;7.00
69435;BMP180;56625;54.322;18.582;2023-03-01T13:15:51;101871.60;;;6.90
69435;BMP180;56625;54.322;18.582;2023-03-01T13:20:49;101861.00;;;6.90
69435;BMP180;56625;54.322;18.582;2023-03-01T13:26:17;101862.20;;;7.00
69435;BMP180;56625;54.322;18.582;2023-03-01T13:33:59;101873.60;;;6.70
69435;BMP180;56625;54.322;18.582;2023-03-01T13:44:37;101852.00;;;6.60
69435;BMP180;56625;54.322;18.582;2023-03-01T13:47:17;101853.80;;;6.54
69435;BMP180;56625;54.322;18.582;2023-03-01T13:49:50;101858.00;;;6.58
69435;BMP180;56625;54.322;18.582;2023-03-01T13:52:43;101858.00;;;6.60
69435;BMP180;56625;54.322;18.582;2023-03-01T13:55:25;101861.40;;;6.58
69435;BMP180;56625;54.322;18.582;2023-03-01T13:58:00;101860.40;;;6.56
69435;BMP180;56625;54.322;18.582;2023-03-01T14:03:25;101860.00;;;6.70
69435;BMP180;56625;54.322;18.582;2023-03-01T14:06:07;101860.40;;;6.60
69435;BMP180;56625;54.322;18.582;2023-03-01T14:08:44;101857.80;;;6.60
69435;BMP180;56625;54.322;18.582;2023-03-01T14:14:31;101861.60;;;6.72
69435;BMP180;56625;54.322;18.582;2023-03-01T14:20:22;101857.80;;;6.60
69435;BMP180;56625;54.322;18.582;2023-03-01T14:22:53;101857.20;;;6.50
69435;BMP180;56625;54.322;18.582;2023-03-01T14:25:32;101856.20;;;6.42
69435;BMP180;56625;54.322;18.582;2023-03-01T14:28:17;101858.60;;;6.40
69435;BMP180;56625;54.322;18.582;2023-03-01T14:30:49;101855.20;;;6.40
69435;BMP180;56625;54.322;18.582;2023-03-01T14:33:35;101854.40;;;6.30
69435;BMP180;56625;54.322;18.582;2023-03-01T14:36:07;101853.80;;;6.40
69435;BMP180;56625;54.322;18.582;2023-03-01T14:38:46;101851.20;;;6.40
69435;BMP180;56625;54.322;18.582;2023-03-01T14:41:24;101848.20;;;6.40
69435;BMP180;56625;54.322;18.582;2023-03-01T14:44:01;101848.20;;;6.40
69435;BMP180;56625;54.322;18.582;2023-03-01T14:46:41;101847.20;;;6.40
69435;BMP180;56625;54.322;18.582;2023-03-01T14:49:24;101841.00;;;6.40
69435;BMP180;56625;54.322;18.582;2023-03-01T14:51:59;101839.80;;;6.40
69435;BMP180;56625;54.322;18.582;2023-03-01T14:54:43;101839.80;;;6.38
69435;BMP180;56625;54.322;18.582;2023-03-01T14:57:20;101842.40;;;6.30
69435;BMP180;56625;54.322;18.582;2023-03-01T14:59:50;101840.60;;;6.30
69435;BMP180;56625;54.322;18.582;2023-03-01T15:02:24;101848.20;;;6.40
69435;BMP180;56625;54.322;18.582;2023-03-01T15:05:02;101845.80;;;6.32
69435;BMP180;56625;54.322;18.582;2023-03-01T15:07:40;101841.20;;;6.30
69435;BMP180;56625;54.322;18.582;2023-03-01T15:10:20;101843.20;;;6.22
69435;BMP180;56625;54.322;18.582;2023-03-01T15:12:47;101843.60;;;6.20
69435;BMP180;56625;54.322;18.582;2023-03-01T15:15:34;101846.40;;;6.10
69435;BMP180;56625;54.322;18.582;2023-03-01T15:20:43;101840.40;;;6.00
69435;BMP180;56625;54.322;18.582;2023-03-01T15:23:22;101841.40;;;6.00
69435;BMP180;56625;54.322;18.582;2023-03-01T15:25:52;101841.00;;;5.90
69435;BMP180;56625;54.322;18.582;2023-03-01T15:28:42;101835.80;;;5.86
69435;BMP180;56625;54.322;18.582;2023-03-01T15:31:28;101830.60;;;5.80
69435;BMP180;56625;54.322;18.582;2023-03-01T15:34:39;101834.40;;;5.70
69435;BMP180;56625;54.322;18.582;2023-03-01T15:37:47;101831.00;;;5.60
69435;BMP180;56625;54.322;18.582;2023-03-01T15:40:30;101833.20;;;5.52
69435;BMP180;56625;54.322;18.582;2023-03-01T15:43:04;101828.00;;;5.50
69435;BMP180;56625;54.322;18.582;2023-03-01T15:45:33;101821.80;;;5.42
69435;BMP180;56625;54.322;18.582;2023-03-01T15:48:19;101821.60;;;5.40
69435;BMP180;56625;54.322;18.582;2023-03-01T15:50:55;101819.40;;;5.30
69435;BMP180;56625;54.322;18.582;2023-03-01T15:53:23;101822.80;;;5.30